Skip Navigation Links Skip Navigation Links

Current Weather

Palm Beach County Park, West Palm Beach, Fla.

For information only: do not use for flight planning or navigation.
Latest weather
Observation time Friday, January 28, 2022 12:15 AM EST
Local time Friday, January 28, 2022 12:37 AM EST
Flight conditions Visual Meteorological Conditions
Winds
Wind direction West-Northwest (300°)
Wind speed 3 mph
Visibility 10 mi.
Sky condition
Ceiling unlimited
Sky clear
Temperature 65°F
Dewpoint 64°F
Altimeter 30.04 in.Hg
Derived measurements
Relative humidity 94%
Density altitude 563 ft.
Remarks
Fully automated report.
Automated weather observing station with precipitation discriminator.
Precipitation sensor not operating.
METAR KLNA 280515Z AUTO 30003KT 10SM CLR 19/18 A3004 RMK AO2 T01850175 PNO

Settings

Location code

InnerDrive.Weather 4.0.6770.0 Release CLR 4.0.30319.42000
Copyright ©2018 Inner Drive Technology. All rights reserved. Portions Copyright ©1986-2018 David Braverman.

Find weather

Site navigation


Skip Navigation Links

Place info

Page info

PayPal - The safer, easier way to pay online!

Return home.

Copyright ©2022 Inner Drive Technology. Purveyors of fine, hand-crafted computer software. Page printed 2022-01-28T05:37:27 UTC.